Time;durP1;ratioP1;P1;durP2;ratioP2;P2;SDS_P1;SDS_P2;PMS_P1;PMS_P2;Temp;Humidity;BMP_temperature;BMP_pressure;BME280_temperature;BME280_humidity;BME280_pressure;Samples;Min_cycle;Max_cycle;Signal;HPM_P1;HPM_P2
2023/09/19 00:02:21;;;;;;;7.72;4.35;;;;;;;17.23;100.00;97757.81;5151398;27;20018;-71
2023/09/19 00:04:48;;;;;;;12.93;4.38;;;;;;;17.19;100.00;97756.38;5152418;27;20023;-72
2023/09/19 00:07:16;;;;;;;6.65;4.38;;;;;;;17.11;100.00;97775.94;5151322;27;20031;-71
2023/09/19 00:09:44;;;;;;;18.08;4.95;;;;;;;17.03;100.00;97761.38;5152586;27;20023;-71
2023/09/19 00:12:09;;;;;;;6.35;4.20;;;;;;;17.13;100.00;97757.78;5152636;27;20083;-72
2023/09/19 00:14:38;;;;;;;8.88;4.90;;;;;;;17.10;100.00;97752.59;5151001;27;20441;-71
2023/09/19 00:17:08;;;;;;;8.23;4.30;;;;;;;17.14;100.00;97758.59;5150911;27;20398;-72
2023/09/19 00:19:37;;;;;;;6.97;4.22;;;;;;;17.33;100.00;97756.03;5150967;27;20106;-71
2023/09/19 00:22:04;;;;;;;6.25;4.10;;;;;;;17.54;100.00;97756.91;5151038;27;20027;-72
2023/09/19 00:24:30;;;;;;;7.70;4.57;;;;;;;17.62;100.00;97759.00;5152301;27;20022;-73
2023/09/19 00:26:56;;;;;;;9.00;4.20;;;;;;;17.64;100.00;97765.97;5152093;27;20030;-72
2023/09/19 00:29:23;;;;;;;5.85;4.18;;;;;;;17.55;100.00;97774.03;5152002;27;20026;-72
2023/09/19 00:31:49;;;;;;;7.00;4.38;;;;;;;17.43;100.00;97775.91;5152283;27;20023;-71
2023/09/19 00:34:16;;;;;;;11.63;5.30;;;;;;;16.91;100.00;97773.22;5133657;27;20022;-72
2023/09/19 00:36:43;;;;;;;13.23;5.47;;;;;;;16.43;100.00;97772.69;5152155;27;20018;-72
2023/09/19 00:39:10;;;;;;;12.20;5.45;;;;;;;16.03;100.00;97772.34;5150764;27;20022;-71
2023/09/19 00:41:36;;;;;;;8.07;4.80;;;;;;;16.00;100.00;97775.28;5150579;27;20023;-71
2023/09/19 00:44:03;;;;;;;10.13;4.88;;;;;;;16.12;100.00;97763.50;5152251;27;20136;-71
2023/09/19 00:46:32;;;;;;;6.57;4.13;;;;;;;16.47;100.00;97756.13;5150565;27;20067;-71
2023/09/19 00:48:58;;;;;;;8.35;4.07;;;;;;;16.77;100.00;97756.31;5150928;27;20454;-70
2023/09/19 00:51:25;;;;;;;10.90;5.10;;;;;;;16.75;100.00;97752.88;5151726;27;20022;-72
2023/09/19 00:53:52;;;;;;;10.45;4.70;;;;;;;16.68;100.00;97751.66;5150763;27;20383;-72
2023/09/19 00:56:18;;;;;;;7.72;4.43;;;;;;;16.74;100.00;97756.56;5133346;27;20019;-72
2023/09/19 00:58:46;;;;;;;6.63;4.35;;;;;;;16.74;100.00;97756.56;5150777;27;20094;-72
2023/09/19 01:01:14;;;;;;;7.22;4.90;;;;;;;16.83;100.00;97757.63;5154599;27;20120;-72
2023/09/19 01:03:40;;;;;;;9.75;5.00;;;;;;;16.80;100.00;97766.84;5154375;27;20030;-72
2023/09/19 01:06:07;;;;;;;18.15;7.90;;;;;;;16.70;100.00;97760.50;5154368;27;20027;-72
2023/09/19 01:08:35;;;;;;;6.50;4.55;;;;;;;16.52;100.00;97764.69;5153977;27;20437;-72
2023/09/19 01:11:09;;;;;;;9.30;4.75;;;;;;;16.62;100.00;97756.72;5154107;27;20034;-72
2023/09/19 01:14:29;;;;;;;10.60;6.15;;;;;;;16.64;100.00;97755.59;5136751;27;20087;-72
2023/09/19 01:17:08;;;;;;;7.82;3.92;;;;;;;17.08;100.00;97753.72;5129954;27;20051;-72
2023/09/19 01:19:55;;;;;;;8.32;4.93;;;;;;;17.19;100.00;97748.28;5155200;27;20492;-71
2023/09/19 01:22:40;;;;;;;10.57;4.80;;;;;;;17.18;100.00;97750.13;5155402;27;20145;-70
2023/09/19 01:25:43;;;;;;;9.45;4.60;;;;;;;16.84;100.00;97750.38;5155317;27;20042;-72
2023/09/19 01:28:21;;;;;;;9.38;5.30;;;;;;;16.45;100.00;97758.09;5140750;27;20035;-72
2023/09/19 01:30:51;;;;;;;8.63;4.65;;;;;;;16.10;100.00;97754.69;5153141;27;20494;-72
2023/09/19 01:33:16;;;;;;;7.32;4.60;;;;;;;15.77;100.00;97755.56;5154035;27;20405;-72
2023/09/19 01:35:45;;;;;;;19.67;5.55;;;;;;;15.62;100.00;97763.03;5154712;27;20015;-73
2023/09/19 01:38:11;;;;;;;9.45;5.45;;;;;;;15.46;100.00;97764.31;5154015;27;20094;-72
2023/09/19 01:40:52;;;;;;;7.93;5.65;;;;;;;15.30;100.00;97770.03;5142355;27;20031;-72
2023/09/19 01:43:27;;;;;;;20.95;7.30;;;;;;;15.10;100.00;97762.66;5151192;27;20035;-72
2023/09/19 01:46:15;;;;;;;11.80;5.65;;;;;;;15.05;100.00;97770.19;5153427;27;20444;-72
2023/09/19 01:49:06;;;;;;;10.95;5.72;;;;;;;15.08;100.00;97780.75;5146225;27;20066;-72
2023/09/19 01:51:39;;;;;;;13.15;5.60;;;;;;;14.92;100.00;97769.44;5153790;27;20451;-72
2023/09/19 01:54:10;;;;;;;10.13;6.28;;;;;;;14.94;100.00;97778.25;5153187;27;20446;-72
2023/09/19 01:56:40;;;;;;;15.50;6.22;;;;;;;14.91;100.00;97779.34;5153361;27;20041;-72
2023/09/19 01:59:27;;;;;;;12.50;5.85;;;;;;;14.89;100.00;97770.50;5135797;27;20030;-72
2023/09/19 02:01:54;;;;;;;12.27;6.07;;;;;;;14.85;100.00;97773.56;5136113;27;20030;-72
2023/09/19 02:04:20;;;;;;;18.70;5.53;;;;;;;14.86;100.00;97765.34;5135951;27;20022;-72
2023/09/19 02:06:47;;;;;;;10.73;5.88;;;;;;;14.79;100.00;97768.63;5135676;27;20105;-74
2023/09/19 02:09:14;;;;;;;9.38;6.00;;;;;;;14.62;100.00;97760.00;5153165;27;20469;-71
2023/09/19 02:11:40;;;;;;;12.48;5.90;;;;;;;14.60;100.00;97764.63;5151920;27;20483;-72
2023/09/19 02:14:08;;;;;;;15.00;7.13;;;;;;;14.53;100.00;97757.13;5153105;27;20027;-71
2023/09/19 02:16:44;;;;;;;10.15;6.40;;;;;;;14.37;100.00;97762.78;5152786;27;20042;-72
2023/09/19 02:19:10;;;;;;;13.15;8.18;;;;;;;14.36;100.00;97770.97;5153072;27;20019;-72
2023/09/19 02:21:35;;;;;;;14.35;6.97;;;;;;;14.33;100.00;97777.44;5154656;27;20015;-72
2023/09/19 02:24:02;;;;;;;21.90;11.05;;;;;;;14.24;100.00;97782.59;5152694;27;20167;-72
2023/09/19 02:26:27;;;;;;;11.18;7.18;;;;;;;14.11;100.00;97770.06;5154007;27;20086;-72
2023/09/19 02:28:53;;;;;;;13.35;6.88;;;;;;;14.07;100.00;97781.13;5135259;27;20109;-72
2023/09/19 02:31:19;;;;;;;18.55;7.55;;;;;;;14.07;100.00;97787.38;5153941;27;20023;-72
2023/09/19 02:33:46;;;;;;;24.77;7.35;;;;;;;14.08;100.00;97785.53;5135588;27;20174;-71
2023/09/19 02:36:11;;;;;;;20.75;9.05;;;;;;;14.12;100.00;97785.19;5152399;27;20431;-72
2023/09/19 02:38:37;;;;;;;15.23;7.68;;;;;;;14.17;100.00;97787.56;5121364;27;20027;-72
2023/09/19 02:41:03;;;;;;;18.10;8.10;;;;;;;14.14;100.00;97790.47;5153665;27;20034;-72
2023/09/19 02:43:28;;;;;;;13.13;7.03;;;;;;;14.06;100.00;97795.53;5140074;27;20092;-71
2023/09/19 02:45:54;;;;;;;12.77;7.60;;;;;;;14.09;100.00;97792.63;5149962;27;20027;-72
2023/09/19 02:48:20;;;;;;;13.57;7.35;;;;;;;14.15;100.00;97800.25;5152258;27;20601;-72
2023/09/19 02:50:49;;;;;;;15.88;7.82;;;;;;;14.11;100.00;97790.69;5152383;27;20099;-71
2023/09/19 02:53:14;;;;;;;16.42;8.07;;;;;;;14.13;100.00;97792.31;5153229;27;20019;-72
2023/09/19 02:55:40;;;;;;;11.98;6.95;;;;;;;14.15;100.00;97797.56;5125802;27;20034;-72
2023/09/19 02:58:15;;;;;;;27.13;8.40;;;;;;;14.12;100.00;97789.72;5131486;27;20045;-71
2023/09/19 03:00:47;;;;;;;16.60;8.07;;;;;;;14.10;100.00;97786.28;5152179;27;20038;-73
2023/09/19 03:03:13;;;;;;;13.93;8.10;;;;;;;14.02;100.00;97783.31;5153288;27;20099;-73
2023/09/19 03:05:38;;;;;;;15.75;7.40;;;;;;;13.95;100.00;97771.25;5151750;27;20071;-72
2023/09/19 03:08:04;;;;;;;13.65;7.82;;;;;;;13.95;100.00;97771.25;5151762;27;20023;-73
2023/09/19 03:10:30;;;;;;;16.20;7.82;;;;;;;13.93;100.00;97774.06;5134637;27;20045;-71
2023/09/19 03:12:57;;;;;;;24.70;8.60;;;;;;;13.86;100.00;97769.22;5134744;27;20478;-72
2023/09/19 03:15:23;;;;;;;17.92;8.20;;;;;;;13.85;100.00;97754.91;5151706;27;20019;-72
2023/09/19 03:17:49;;;;;;;10.93;6.88;;;;;;;13.87;100.00;97758.34;5153115;27;20176;-72
2023/09/19 03:20:18;;;;;;;17.60;7.97;;;;;;;13.85;100.00;97759.44;5151592;27;20027;-73
2023/09/19 03:22:45;;;;;;;14.02;8.25;;;;;;;13.86;100.00;97750.41;5139744;27;20096;-73
2023/09/19 03:25:11;;;;;;;20.15;9.23;;;;;;;13.86;100.00;97756.66;5149303;27;20113;-73
2023/09/19 03:27:38;;;;;;;26.50;11.35;;;;;;;13.82;100.00;97756.97;5151551;27;20524;-73
2023/09/19 03:30:08;;;;;;;30.35;12.63;;;;;;;13.77;100.00;97751.94;5151727;27;20025;-73
2023/09/19 03:32:37;;;;;;;15.73;10.20;;;;;;;13.86;100.00;97751.25;5134482;27;20018;-73
2023/09/19 03:35:06;;;;;;;21.15;10.60;;;;;;;13.89;100.00;97750.19;5151494;27;20042;-73
2023/09/19 03:37:35;;;;;;;15.75;7.28;;;;;;;13.87;100.00;97758.34;5134456;27;20052;-73
2023/09/19 03:40:04;;;;;;;16.20;8.55;;;;;;;13.86;100.00;97769.22;5151222;27;20045;-77
2023/09/19 03:42:31;;;;;;;18.95;9.43;;;;;;;13.82;100.00;97765.03;5130541;27;20023;-72
2023/09/19 03:44:56;;;;;;;21.00;9.32;;;;;;;13.71;100.00;97771.19;5126438;27;20119;-71
2023/09/19 03:47:22;;;;;;;20.80;10.77;;;;;;;13.70;100.00;97777.53;5141047;27;20073;-72
2023/09/19 03:49:48;;;;;;;16.08;8.32;;;;;;;13.70;100.00;97776.66;5131251;27;20519;-72
2023/09/19 03:52:15;;;;;;;17.00;7.65;;;;;;;13.66;100.00;97775.16;5124612;27;20496;-71
2023/09/19 03:54:41;;;;;;;18.52;8.82;;;;;;;13.73;100.00;97776.44;5131662;27;20383;-71
2023/09/19 03:57:06;;;;;;;16.65;9.18;;;;;;;13.68;100.00;97776.78;5130057;27;20029;-71
2023/09/19 03:59:32;;;;;;;18.23;10.13;;;;;;;13.73;100.00;97779.13;5133263;27;20390;-70
2023/09/19 04:01:58;;;;;;;21.58;10.57;;;;;;;13.67;100.00;97772.34;5145775;27;20109;-72
2023/09/19 04:04:25;;;;;;;27.35;11.93;;;;;;;13.71;100.00;97767.63;5150803;27;20019;-71
2023/09/19 04:06:53;;;;;;;34.00;14.82;;;;;;;13.78;100.00;97777.81;5146893;27;20514;-72
2023/09/19 04:09:19;;;;;;;31.00;12.20;;;;;;;13.84;100.00;97781.94;5149776;27;20061;-72
2023/09/19 04:12:00;;;;;;;33.92;12.65;;;;;;;13.85;100.00;97784.50;5153347;27;20050;-85
2023/09/19 04:14:26;;;;;;;22.20;8.35;;;;;;;13.80;100.00;97785.78;5123253;27;20038;-83
2023/09/19 04:16:51;;;;;;;14.52;8.00;;;;;;;13.85;100.00;97786.31;5118133;27;20035;-71
2023/09/19 04:19:17;;;;;;;25.65;8.18;;;;;;;13.89;100.00;97785.13;5128962;27;20069;-72
2023/09/19 04:21:43;;;;;;;21.80;9.35;;;;;;;13.95;100.00;97792.75;5148539;27;20053;-71
2023/09/19 04:24:08;;;;;;;21.63;8.95;;;;;;;13.91;100.00;97775.13;5133797;27;20031;-70
2023/09/19 04:26:34;;;;;;;21.52;8.63;;;;;;;13.97;100.00;97789.00;5138162;27;20023;-71
2023/09/19 04:29:00;;;;;;;19.50;8.80;;;;;;;13.98;100.00;97790.72;5130028;27;20038;-71
2023/09/19 04:31:26;;;;;;;22.23;8.52;;;;;;;14.01;100.00;97792.31;5128718;27;20033;-70
2023/09/19 04:33:52;;;;;;;15.57;7.60;;;;;;;13.98;100.00;97793.41;5137326;27;20027;-72
2023/09/19 04:36:18;;;;;;;26.83;8.07;;;;;;;13.99;100.00;97794.28;5151514;27;20018;-71
2023/09/19 04:38:43;;;;;;;17.80;9.85;;;;;;;13.89;100.00;97795.91;5130989;27;20038;-71
2023/09/19 04:41:09;;;;;;;25.10;10.65;;;;;;;13.86;100.00;97801.50;5150986;27;20034;-71
2023/09/19 04:43:35;;;;;;;31.80;10.88;;;;;;;13.89;100.00;97804.81;5155523;27;20031;-71
2023/09/19 04:46:00;;;;;;;30.73;9.80;;;;;;;13.89;100.00;97787.81;5134392;27;20054;-72
2023/09/19 04:48:26;;;;;;;25.30;10.00;;;;;;;14.09;100.00;97789.94;5135958;27;20031;-71
2023/09/19 04:50:51;;;;;;;18.52;8.32;;;;;;;14.23;100.00;97789.81;5136981;27;20434;-71
2023/09/19 04:53:20;;;;;;;30.33;10.52;;;;;;;14.32;100.00;97790.97;5150077;27;20035;-72
2023/09/19 04:55:49;;;;;;;20.95;9.15;;;;;;;14.33;100.00;97793.59;5137020;27;20027;-71
2023/09/19 04:58:14;;;;;;;16.05;8.05;;;;;;;14.37;100.00;97802.28;5153869;27;20058;-72
2023/09/19 05:00:40;;;;;;;18.33;8.88;;;;;;;14.38;100.00;97791.41;5139136;27;20072;-72
2023/09/19 05:03:06;;;;;;;28.80;11.52;;;;;;;14.36;100.00;97784.44;5149408;27;20073;-71
2023/09/19 05:05:31;;;;;;;32.55;11.32;;;;;;;14.39;100.00;97779.69;5140422;27;20026;-71
2023/09/19 05:07:57;;;;;;;27.67;10.20;;;;;;;14.48;100.00;97779.00;5139504;27;20027;-72
2023/09/19 05:10:25;;;;;;;24.80;9.77;;;;;;;14.65;100.00;97783.13;5151330;27;20492;-75
2023/09/19 05:12:53;;;;;;;29.58;8.73;;;;;;;14.77;100.00;97775.94;5151979;27;20027;-73
2023/09/19 05:15:19;;;;;;;31.48;8.20;;;;;;;14.98;100.00;97777.88;5140829;27;20030;-71
2023/09/19 05:17:50;;;;;;;29.50;11.32;;;;;;;15.09;100.00;97769.88;5148408;27;20050;-71
2023/09/19 05:20:24;;;;;;;22.25;8.57;;;;;;;15.31;100.00;97765.50;5148914;27;20030;-71
2023/09/19 05:23:01;;;;;;;20.30;8.00;;;;;;;15.53;100.00;97762.91;5145578;27;20019;-71
2023/09/19 05:25:29;;;;;;;28.70;13.07;;;;;;;15.85;100.00;97758.50;5146864;27;20481;-72
2023/09/19 05:27:57;;;;;;;15.20;7.93;;;;;;;15.82;100.00;97755.19;5142192;27;20440;-72
2023/09/19 05:30:23;;;;;;;19.65;8.18;;;;;;;16.03;100.00;97745.38;5143188;27;20031;-70
2023/09/19 05:32:50;;;;;;;21.05;9.02;;;;;;;16.44;100.00;97740.16;5154281;27;20027;-72
2023/09/19 05:35:16;;;;;;;16.85;7.10;;;;;;;16.96;100.00;97730.44;5148720;27;20031;-72
2023/09/19 05:37:41;;;;;;;17.60;9.35;;;;;;;17.00;100.00;97734.59;5144284;27;20050;-72
2023/09/19 05:40:11;;;;;;;13.40;6.60;;;;;;;17.04;100.00;97734.19;5138862;27;20042;-72
2023/09/19 05:42:39;;;;;;;17.52;7.85;;;;;;;16.94;100.00;97729.72;5126489;27;20023;-72
2023/09/19 05:45:08;;;;;;;18.48;7.68;;;;;;;16.82;100.00;97733.47;5138582;27;20026;-71
2023/09/19 05:47:34;;;;;;;18.42;7.65;;;;;;;16.77;100.00;97740.09;5138983;27;20038;-72
2023/09/19 05:49:59;;;;;;;16.55;8.25;;;;;;;16.65;100.00;97734.84;5140117;27;20027;-71
2023/09/19 05:52:25;;;;;;;19.20;7.13;;;;;;;17.06;100.00;97736.78;5136697;27;20031;-73
2023/09/19 05:54:51;;;;;;;26.08;9.13;;;;;;;17.29;100.00;97722.13;5146294;27;20030;-72
2023/09/19 05:57:16;;;;;;;19.38;8.25;;;;;;;17.91;100.00;97707.69;5146216;27;20027;-70
2023/09/19 05:59:43;;;;;;;17.92;7.60;;;;;;;18.29;100.00;97691.59;5153026;27;20042;-71
2023/09/19 06:02:09;;;;;;;14.68;7.47;;;;;;;18.86;100.00;97693.53;5147333;27;20026;-71
2023/09/19 06:04:35;;;;;;;14.55;8.20;;;;;;;19.46;100.00;97697.78;5153131;27;20034;-71
2023/09/19 06:07:05;;;;;;;16.10;6.93;;;;;;;20.09;100.00;97684.41;5141145;27;20034;-71
2023/09/19 06:09:32;;;;;;;18.33;7.45;;;;;;;20.85;100.00;97670.34;5141338;27;20092;-71
2023/09/19 06:11:58;;;;;;;20.45;7.78;;;;;;;21.23;100.00;97671.88;5145289;27;20037;-71
2023/09/19 06:14:24;;;;;;;22.10;7.93;;;;;;;21.80;100.00;97667.69;5147185;27;20502;-71
2023/09/19 06:16:50;;;;;;;21.92;7.72;;;;;;;22.32;100.00;97663.00;5149820;27;20038;-71
2023/09/19 06:19:16;;;;;;;17.27;6.63;;;;;;;22.43;100.00;97667.28;5148613;27;20046;-71
2023/09/19 06:21:42;;;;;;;15.20;5.85;;;;;;;21.91;100.00;97666.56;5149572;27;20113;-72
2023/09/19 06:24:07;;;;;;;15.25;6.40;;;;;;;21.30;100.00;97677.53;5133800;27;20031;-72
2023/09/19 06:26:33;;;;;;;17.90;6.68;;;;;;;21.35;100.00;97669.78;5141604;27;20027;-71
2023/09/19 06:28:59;;;;;;;31.33;9.30;;;;;;;21.58;100.00;97663.63;5136738;27;20407;-71
2023/09/19 06:31:26;;;;;;;28.42;7.63;;;;;;;20.99;100.00;97664.34;5143384;27;20122;-72
2023/09/19 06:33:52;;;;;;;15.48;6.47;;;;;;;21.03;100.00;97687.50;5142467;27;20031;-71
2023/09/19 06:36:19;;;;;;;14.25;6.63;;;;;;;21.03;100.00;97671.19;5153502;27;20022;-71
2023/09/19 06:38:44;;;;;;;12.25;6.78;;;;;;;20.94;100.00;97677.56;5149521;27;20030;-71
2023/09/19 06:41:11;;;;;;;14.85;6.65;;;;;;;20.82;100.00;97672.53;5133001;27;20031;-71
2023/09/19 06:43:36;;;;;;;13.85;6.38;;;;;;;20.92;100.00;97673.28;5150001;27;20027;-73
2023/09/19 06:46:02;;;;;;;14.43;6.80;;;;;;;20.98;100.00;97678.09;5141827;27;20035;-71
2023/09/19 06:48:32;;;;;;;18.55;6.70;;;;;;;20.90;100.00;97680.75;5132968;27;20031;-71
2023/09/19 06:50:58;;;;;;;11.68;6.50;;;;;;;20.69;100.00;97678.34;5151655;27;20030;-71
2023/09/19 06:53:24;;;;;;;8.35;5.97;;;;;;;20.54;100.00;97680.75;5152265;27;20030;-71
2023/09/19 06:55:53;;;;;;;24.38;6.07;;;;;;;20.14;100.00;97684.81;5151781;27;20110;-71
2023/09/19 06:58:20;;;;;;;12.88;6.00;;;;;;;20.38;100.00;97685.13;5137048;27;20065;-72
2023/09/19 07:00:46;;;;;;;9.90;5.72;;;;;;;20.90;100.00;97680.75;5132391;27;20023;-72
2023/09/19 07:03:13;;;;;;;16.25;5.53;;;;;;;20.90;100.00;97683.47;5124101;27;20037;-72
2023/09/19 07:05:40;;;;;;;10.30;5.72;;;;;;;21.15;100.00;97684.56;5148115;27;20023;-71
2023/09/19 07:08:12;;;;;;;34.33;7.03;;;;;;;21.10;100.00;97693.22;5148347;27;20023;-71
2023/09/19 07:10:40;;;;;;;14.00;6.35;;;;;;;20.62;100.00;97698.13;5140318;27;20054;-71
2023/09/19 07:13:10;;;;;;;11.77;6.43;;;;;;;20.94;100.00;97699.31;5151547;27;20546;-71
2023/09/19 07:15:39;;;;;;;11.05;6.07;;;;;;;21.15;100.00;97693.59;5143982;27;20027;-71
2023/09/19 07:18:05;;;;;;;9.35;5.60;;;;;;;21.61;100.00;97708.75;5132264;27;20046;-71
2023/09/19 07:20:32;;;;;;;11.57;5.95;;;;;;;22.67;100.00;97689.22;5134448;27;20022;-72
2023/09/19 07:23:01;;;;;;;11.10;6.90;;;;;;;23.67;100.00;97680.75;5143107;27;20388;-70
2023/09/19 07:25:27;;;;;;;13.02;5.78;;;;;;;24.84;100.00;97676.22;5152991;27;20030;-71
2023/09/19 07:27:55;;;;;;;11.02;6.35;;;;;;;25.40;94.73;97669.47;5133106;27;20530;-71
2023/09/19 07:30:21;;;;;;;10.63;5.95;;;;;;;26.64;88.43;97650.44;5132110;27;20019;-71
2023/09/19 07:32:47;;;;;;;7.82;4.95;;;;;;;28.42;69.27;97627.06;5150987;27;20033;-71
2023/09/19 07:35:18;;;;;;;12.77;4.68;;;;;;;28.80;66.08;97632.06;5152916;27;20054;-72
2023/09/19 07:37:49;;;;;;;16.23;4.90;;;;;;;29.12;58.65;97614.78;5133427;27;20027;-71
2023/09/19 07:40:18;;;;;;;7.80;4.45;;;;;;;29.88;55.81;97606.94;5127916;27;20038;-71
2023/09/19 07:42:44;;;;;;;9.25;4.57;;;;;;;28.59;59.86;97604.66;5143887;27;20030;-71
2023/09/19 07:45:19;;;;;;;11.80;4.82;;;;;;;29.33;59.59;97600.81;5132235;27;20058;-70
2023/09/19 07:47:46;;;;;;;7.68;4.30;;;;;;;29.22;60.71;97603.34;5148437;27;20034;-71
2023/09/19 07:50:12;;;;;;;6.85;4.72;;;;;;;29.90;57.05;97594.63;5139655;27;20507;-70
2023/09/19 07:52:39;;;;;;;8.45;4.53;;;;;;;29.82;58.16;97592.13;5139397;27;20060;-71
2023/09/19 07:55:10;;;;;;;10.88;4.72;;;;;;;29.35;59.09;97604.19;5130698;27;20034;-71
2023/09/19 07:57:36;;;;;;;10.77;5.53;;;;;;;29.03;59.80;97596.75;5146750;27;20123;-71
2023/09/19 08:00:04;;;;;;;13.43;5.55;;;;;;;29.31;57.42;97585.56;5151183;27;20078;-71
2023/09/19 08:02:30;;;;;;;9.82;5.65;;;;;;;29.37;57.21;97599.34;5141144;27;20023;-72
2023/09/19 08:04:58;;;;;;;7.03;4.90;;;;;;;29.01;56.96;97596.09;5147693;27;20030;-72
2023/09/19 08:07:24;;;;;;;6.63;4.20;;;;;;;29.13;54.45;97594.44;5141437;27;20062;-72
2023/09/19 08:09:49;;;;;;;13.88;5.00;;;;;;;28.61;57.88;97597.88;5147546;27;20106;-71
2023/09/19 08:12:15;;;;;;;16.88;7.13;;;;;;;29.08;57.86;97602.47;5155657;27;20401;-71
2023/09/19 08:14:43;;;;;;;12.38;4.70;;;;;;;28.02;58.95;97595.69;5153220;27;20517;-72
2023/09/19 08:17:09;;;;;;;13.85;4.78;;;;;;;27.16;66.10;97612.59;5138881;27;20030;-71
2023/09/19 08:19:36;;;;;;;7.75;4.32;;;;;;;27.13;67.86;97602.00;5145423;27;20030;-72
2023/09/19 08:22:02;;;;;;;7.72;4.93;;;;;;;27.37;65.32;97593.34;5135761;27;20042;-71
2023/09/19 08:24:29;;;;;;;8.98;5.05;;;;;;;28.12;61.50;97592.59;5153216;27;20029;-71
2023/09/19 08:26:55;;;;;;;11.05;5.03;;;;;;;28.10;61.51;97586.44;5153396;27;20474;-71
2023/09/19 08:29:27;;;;;;;8.50;5.38;;;;;;;27.74;63.71;97594.91;5149436;27;20492;-72
2023/09/19 08:31:54;;;;;;;7.03;3.85;;;;;;;27.45;64.16;97593.19;5134946;27;20482;-72
2023/09/19 08:34:21;;;;;;;7.95;4.30;;;;;;;26.40;70.55;97592.09;5152398;27;20405;-70
2023/09/19 08:36:47;;;;;;;10.80;5.15;;;;;;;26.01;78.76;97598.94;5152316;27;20014;-71
2023/09/19 08:39:13;;;;;;;15.60;7.90;;;;;;;26.01;82.38;97596.22;5156051;27;20042;-71
2023/09/19 08:41:39;;;;;;;16.65;5.45;;;;;;;25.27;85.33;97600.75;5138157;27;20018;-71
2023/09/19 08:44:05;;;;;;;22.42;7.20;;;;;;;25.65;87.06;97601.59;5116767;27;20025;-71
2023/09/19 08:46:35;;;;;;;25.90;9.85;;;;;;;25.88;88.87;97589.50;5132321;27;20026;-70
2023/09/19 08:49:05;;;;;;;17.23;4.75;;;;;;;25.97;85.50;97578.44;5137505;27;20037;-70
2023/09/19 08:51:48;;;;;;;13.05;5.55;;;;;;;25.73;87.14;97582.31;5154701;27;20033;-71
2023/09/19 08:54:29;;;;;;;13.27;5.72;;;;;;;26.13;85.76;97576.34;5150469;27;20458;-71
2023/09/19 08:56:56;;;;;;;10.68;4.97;;;;;;;25.91;83.52;97571.81;5135470;27;20026;-71
2023/09/19 08:59:26;;;;;;;14.43;5.68;;;;;;;25.67;87.27;97570.22;5154686;27;20501;-71
2023/09/19 09:01:53;;;;;;;15.20;6.20;;;;;;;26.01;87.36;97572.38;5155448;27;20030;-71
2023/09/19 09:04:20;;;;;;;9.63;4.10;;;;;;;25.95;82.03;97553.09;5154421;27;20465;-70
2023/09/19 09:06:48;;;;;;;6.65;3.72;;;;;;;26.40;76.25;97558.31;5154481;27;20459;-71
2023/09/19 09:09:15;;;;;;;5.65;3.95;;;;;;;26.79;74.03;97556.00;5154395;27;20474;-70
2023/09/19 09:11:40;;;;;;;7.75;4.20;;;;;;;27.85;65.85;97549.47;5137072;27;20025;-70
2023/09/19 09:14:09;;;;;;;5.13;3.75;;;;;;;28.64;60.09;97547.06;5154258;27;20026;-70
2023/09/19 09:16:35;;;;;;;4.70;3.60;;;;;;;28.93;55.91;97536.53;5154179;27;20081;-71
2023/09/19 09:19:01;;;;;;;5.72;3.55;;;;;;;29.47;55.64;97525.31;5154023;27;20046;-70
2023/09/19 09:21:28;;;;;;;3.92;3.47;;;;;;;29.59;52.69;97531.84;5136190;27;20011;-70
2023/09/19 09:23:54;;;;;;;7.28;3.63;;;;;;;30.40;51.08;97524.00;5154014;27;20023;-71
2023/09/19 09:26:43;;;;;;;8.80;4.00;;;;;;;31.67;50.27;97521.78;5155049;27;20030;-71
2023/09/19 09:29:08;;;;;;;9.15;3.72;;;;;;;32.04;48.75;97514.38;5146394;27;20034;-71
2023/09/19 09:31:34;;;;;;;4.47;3.33;;;;;;;31.61;48.47;97522.69;5155117;27;20023;-71
2023/09/19 09:34:00;;;;;;;8.98;3.40;;;;;;;31.61;45.80;97511.63;5144178;27;20110;-71
2023/09/19 09:36:36;;;;;;;4.30;3.67;;;;;;;31.45;46.70;97509.41;5153499;27;20022;-71
2023/09/19 09:39:15;;;;;;;4.38;3.42;;;;;;;31.90;47.27;97520.25;5153638;27;20026;-71
2023/09/19 09:41:41;;;;;;;6.60;3.47;;;;;;;32.20;46.63;97515.66;5154988;27;20018;-71
2023/09/19 09:44:15;;;;;;;6.70;3.60;;;;;;;32.74;45.25;97510.03;5136235;27;20019;-71
2023/09/19 09:49:33;;;;;;;4.10;3.53;;;;;;;34.33;41.52;97495.03;5154000;27;20026;-71
2023/09/19 09:52:07;;;;;;;6.28;3.72;;;;;;;32.92;43.93;97508.25;5153590;27;20115;-72
2023/09/19 09:54:37;;;;;;;9.68;3.88;;;;;;;32.77;43.96;97499.53;5153272;27;20026;-75
2023/09/19 09:57:23;;;;;;;8.88;3.60;;;;;;;32.80;43.06;97499.06;5154707;27;20034;-71
2023/09/19 10:00:14;;;;;;;13.18;4.53;;;;;;;33.05;42.58;97495.03;5137819;27;20039;-71
2023/09/19 10:02:41;;;;;;;5.03;3.88;;;;;;;33.58;42.61;97483.03;5153245;27;20027;-71
2023/09/19 10:05:21;;;;;;;8.05;3.75;;;;;;;33.41;42.11;97480.13;5153412;27;20397;-72
2023/09/19 10:07:53;;;;;;;13.18;3.80;;;;;;;32.73;42.87;97486.16;5153191;27;20027;-72
2023/09/19 10:10:39;;;;;;;;;;;;;;;32.43;43.61;97484.44;5153644;27;20039;-72
2023/09/19 10:13:07;;;;;;;6.20;3.72;;;;;;;32.36;44.06;97492.88;5154437;27;19957;-72
2023/09/19 10:15:33;;;;;;;7.82;4.15;;;;;;;31.52;45.21;97479.81;5132681;27;20025;-70
2023/09/19 10:18:05;;;;;;;4.55;3.67;;;;;;;31.36;45.89;97485.91;5130210;27;20061;-71
2023/09/19 10:20:35;;;;;;;7.50;3.80;;;;;;;31.09;46.89;97478.91;5152914;27;20031;-72
2023/09/19 10:23:02;;;;;;;6.53;3.65;;;;;;;31.06;46.93;97482.13;5152910;27;20109;-71
2023/09/19 10:25:31;;;;;;;5.50;3.47;;;;;;;31.58;45.54;97473.34;5152666;27;20030;-71
2023/09/19 10:28:00;;;;;;;7.80;4.40;;;;;;;30.58;48.60;97488.19;5152639;27;20052;-70
2023/09/19 10:30:28;;;;;;;5.65;3.90;;;;;;;30.56;48.04;97473.78;5135921;27;20033;-71
2023/09/19 10:33:02;;;;;;;7.63;4.07;;;;;;;30.42;48.63;97476.84;5152755;27;20026;-71
2023/09/19 10:35:28;;;;;;;7.72;3.85;;;;;;;30.95;48.17;97474.56;5136705;27;20023;-71
2023/09/19 10:37:55;;;;;;;5.88;3.95;;;;;;;30.48;48.83;97482.34;5151284;27;20027;-71
2023/09/19 10:40:26;;;;;;;5.53;4.00;;;;;;;31.15;47.12;97478.88;5152749;27;20026;-71
2023/09/19 10:42:52;;;;;;;6.25;4.18;;;;;;;31.37;45.41;97470.16;5150643;27;20030;-72
2023/09/19 10:45:20;;;;;;;5.60;3.85;;;;;;;31.34;46.71;97467.84;5149077;27;20033;-72
2023/09/19 10:47:46;;;;;;;4.78;3.90;;;;;;;31.55;45.67;97468.28;5153892;27;20031;-72
2023/09/19 10:50:21;;;;;;;5.70;3.60;;;;;;;32.32;44.13;97468.63;5152210;27;20030;-71
2023/09/19 10:52:50;;;;;;;10.18;3.65;;;;;;;33.16;42.55;97460.13;5152687;27;20026;-71
2023/09/19 10:55:20;;;;;;;7.82;3.75;;;;;;;33.38;40.95;97452.88;5153636;27;20099;-71
2023/09/19 10:57:46;;;;;;;4.60;3.75;;;;;;;34.12;40.76;97448.47;5152283;27;20019;-71
2023/09/19 11:00:25;;;;;;;6.30;3.78;;;;;;;34.89;38.71;97449.69;5153338;27;20087;-71
2023/09/19 11:03:09;;;;;;;4.60;3.70;;;;;;;34.45;39.74;97448.59;5153400;27;20019;-71
2023/09/19 11:05:40;;;;;;;7.95;3.67;;;;;;;34.82;39.71;97451.81;5153269;27;20096;-71
2023/09/19 11:08:11;;;;;;;6.07;3.92;;;;;;;34.00;41.16;97447.63;5153063;27;20029;-71
2023/09/19 11:10:50;;;;;;;8.93;4.78;;;;;;;33.13;42.59;97444.78;5151949;27;20405;-71
2023/09/19 11:13:36;;;;;;;7.97;4.05;;;;;;;33.31;42.58;97451.34;5130665;27;20121;-72
2023/09/19 11:16:04;;;;;;;5.82;4.10;;;;;;;34.31;41.13;97447.19;5151631;27;20022;-72
2023/09/19 11:18:42;;;;;;;9.65;3.92;;;;;;;35.98;38.51;97434.16;5130351;27;20394;-71
2023/09/19 11:21:30;;;;;;;4.90;3.65;;;;;;;36.08;37.45;97434.34;5151425;27;20029;-72
2023/09/19 11:24:30;;;;;;;4.18;3.40;;;;;;;37.53;35.50;97427.72;5152763;27;20398;-71
2023/09/19 11:27:13;;;;;;;5.30;3.65;;;;;;;37.01;35.31;97415.56;5106512;27;20035;-73
2023/09/19 11:29:40;;;;;;;5.47;3.33;;;;;;;36.52;35.58;97425.91;5146493;27;20087;-72
2023/09/19 11:32:06;;;;;;;5.47;3.75;;;;;;;34.77;37.91;97418.34;5134045;27;20546;-71
2023/09/19 11:34:48;;;;;;;4.10;3.40;;;;;;;33.68;39.71;97420.34;5151412;27;20046;-72